Time;durP1;ratioP1;P1;durP2;ratioP2;P2;SDS_P1;SDS_P2;PMS_P1;PMS_P2;Temp;Humidity;BMP_temperature;BMP_pressure;BME280_temperature;BME280_humidity;BME280_pressure;Samples;Min_cycle;Max_cycle;Signal;HPM_P1;HPM_P2
2022/06/08 00:01:43;;;;;;;14.95;11.85;;;;;;;12.90;100.00;100090.69;5092383;28;20033;-72
2022/06/08 00:04:11;;;;;;;12.82;11.40;;;;;;;12.86;100.00;100089.19;5073233;28;20029;-71
2022/06/08 00:06:36;;;;;;;11.18;9.98;;;;;;;12.81;100.00;100078.94;5074641;28;20089;-72
2022/06/08 00:09:02;;;;;;;11.25;10.15;;;;;;;12.76;100.00;100067.00;5082233;28;20020;-71
2022/06/08 00:11:27;;;;;;;16.13;12.13;;;;;;;12.71;100.00;100061.16;5091571;28;20016;-72
2022/06/08 00:13:53;;;;;;;12.65;11.35;;;;;;;12.77;100.00;100077.44;5094698;28;20072;-72
2022/06/08 00:16:19;;;;;;;12.07;10.75;;;;;;;12.72;100.00;100066.34;5081191;28;20032;-72
2022/06/08 00:18:45;;;;;;;11.77;10.60;;;;;;;12.76;100.00;100070.50;5082988;28;20032;-72
2022/06/08 00:21:12;;;;;;;12.65;10.50;;;;;;;12.61;100.00;100052.16;5063852;28;20044;-72
2022/06/08 00:23:38;;;;;;;12.45;10.63;;;;;;;12.70;100.00;100072.66;5091468;28;20051;-72
2022/06/08 00:26:04;;;;;;;12.60;10.90;;;;;;;12.31;100.00;100007.53;5094223;28;20027;-72
2022/06/08 00:28:31;;;;;;;13.25;10.90;;;;;;;12.62;100.00;100065.25;5089577;28;20024;-72
2022/06/08 00:30:57;;;;;;;13.10;10.40;;;;;;;12.51;100.00;100048.41;5089368;28;20157;-72
2022/06/08 00:33:22;;;;;;;12.88;10.93;;;;;;;12.33;100.00;100026.75;5090940;28;20107;-72
2022/06/08 00:35:48;;;;;;;12.40;11.20;;;;;;;12.43;100.00;100043.66;5080295;28;20024;-72
2022/06/08 00:38:13;;;;;;;12.80;10.07;;;;;;;12.42;100.00;100038.47;5090903;28;20505;-72
2022/06/08 00:40:38;;;;;;;13.77;10.60;;;;;;;12.47;100.00;100058.31;5093710;28;20023;-72
2022/06/08 00:43:04;;;;;;;12.25;10.80;;;;;;;12.46;100.00;100048.72;5089157;28;20102;-71
2022/06/08 00:45:29;;;;;;;12.40;11.10;;;;;;;12.43;100.00;100032.25;5082559;28;20024;-73
2022/06/08 00:48:00;;;;;;;13.57;12.07;;;;;;;12.44;100.00;100037.41;5080594;28;20016;-72
2022/06/08 00:50:30;;;;;;;13.98;11.88;;;;;;;12.47;100.00;100039.03;5091482;28;20158;-72
2022/06/08 00:52:56;;;;;;;19.02;11.45;;;;;;;12.39;100.00;100030.75;5090179;28;20024;-72
2022/06/08 00:55:25;;;;;;;11.85;10.65;;;;;;;12.30;100.00;100033.03;5093261;28;20039;-72
2022/06/08 00:58:03;;;;;;;13.50;10.98;;;;;;;12.35;100.00;100039.78;5090995;28;20103;-72
2022/06/08 01:00:32;;;;;;;10.55;9.45;;;;;;;12.32;100.00;100035.56;5087360;28;20454;-72
2022/06/08 01:02:58;;;;;;;12.40;10.82;;;;;;;12.26;100.00;100036.81;5094148;28;20032;-72
2022/06/08 01:05:30;;;;;;;12.80;9.95;;;;;;;12.17;100.00;100011.03;5094040;28;20054;-73
2022/06/08 01:07:59;;;;;;;13.77;11.27;;;;;;;12.23;100.00;100031.72;5089289;28;20032;-72
2022/06/08 01:10:28;;;;;;;12.45;10.63;;;;;;;12.04;100.00;100007.47;5092823;28;20020;-72
2022/06/08 01:12:56;;;;;;;16.83;11.65;;;;;;;12.08;100.00;100011.63;5088006;28;20024;-72
2022/06/08 01:15:24;;;;;;;13.15;11.68;;;;;;;12.19;100.00;100032.03;5092825;28;20104;-72
2022/06/08 01:17:50;;;;;;;14.68;10.80;;;;;;;12.11;100.00;100006.16;5086857;28;20036;-72
2022/06/08 01:20:15;;;;;;;14.18;10.60;;;;;;;12.13;100.00;100004.25;5091072;28;20046;-72
2022/06/08 01:22:40;;;;;;;22.27;10.55;;;;;;;12.20;100.00;100015.28;5090784;28;20063;-72
2022/06/08 01:25:07;;;;;;;15.45;11.30;;;;;;;12.22;100.00;100003.69;5092586;28;20073;-72
2022/06/08 01:27:56;;;;;;;13.95;11.70;;;;;;;12.32;100.00;100003.09;5093705;28;20486;-72
2022/06/08 01:30:34;;;;;;;13.23;11.27;;;;;;;12.34;100.00;100001.22;5091800;28;20126;-72
2022/06/08 01:33:27;;;;;;;14.90;10.60;;;;;;;12.35;100.00;99997.63;5090974;28;20475;-72
2022/06/08 01:36:33;;;;;;;14.85;10.13;;;;;;;12.34;100.00;99990.66;5084455;28;20032;-72
2022/06/08 01:39:11;;;;;;;10.15;9.05;;;;;;;12.34;100.00;99991.50;5079797;28;20056;-71
2022/06/08 01:41:42;;;;;;;11.27;10.18;;;;;;;12.36;100.00;99994.06;5092387;28;20032;-72
2022/06/08 01:44:18;;;;;;;10.35;8.88;;;;;;;12.11;100.00;99942.94;5084805;28;20124;-72
2022/06/08 01:47:38;;;;;;;10.32;9.10;;;;;;;12.36;100.00;99979.13;5085719;28;20071;-72
2022/06/08 01:50:50;;;;;;;9.85;8.23;;;;;;;12.33;100.00;99978.47;5036301;28;20044;-72
2022/06/08 01:53:44;;;;;;;10.65;8.15;;;;;;;12.24;100.00;99959.66;5067040;28;20060;-72
2022/06/08 01:56:39;;;;;;;14.25;7.97;;;;;;;12.33;100.00;99968.78;5080239;28;20028;-72
2022/06/08 01:59:33;;;;;;;8.70;7.70;;;;;;;12.33;100.00;99967.94;5092221;28;20027;-72
2022/06/08 02:02:08;;;;;;;9.15;7.72;;;;;;;12.34;100.00;99959.06;5093249;28;20032;-72
2022/06/08 02:04:39;;;;;;;;;;;;;;;12.33;100.00;99957.38;5093261;28;20028;-72
2022/06/08 02:07:07;;;;;;;10.15;8.38;;;;;;;12.33;100.00;99954.75;5082597;28;19912;-71
2022/06/08 02:09:46;;;;;;;11.98;7.93;;;;;;;11.76;100.00;99853.03;5101832;28;20097;-72
2022/06/08 02:12:12;;;;;;;8.82;7.93;;;;;;;12.27;100.00;99941.00;5099633;28;20390;-72
2022/06/08 02:14:56;;;;;;;11.95;7.65;;;;;;;12.25;100.00;99929.75;5090704;28;20032;-72
2022/06/08 02:17:37;;;;;;;7.82;7.03;;;;;;;12.23;100.00;99923.72;5082236;28;20039;-72
2022/06/08 02:20:08;;;;;;;7.88;7.10;;;;;;;12.19;100.00;99913.50;5106413;28;20035;-72
2022/06/08 02:22:43;;;;;;;10.48;7.20;;;;;;;12.16;100.00;99904.00;5079860;28;20118;-72
2022/06/08 02:25:16;;;;;;;7.28;6.10;;;;;;;12.07;100.00;99894.03;5101303;28;20396;-72
2022/06/08 02:27:46;;;;;;;8.38;6.65;;;;;;;12.24;100.00;99908.75;5083946;28;20024;-72
2022/06/08 02:30:20;;;;;;;7.15;6.18;;;;;;;12.21;100.00;99901.91;5092434;28;20031;-72
2022/06/08 02:35:59;;;;;;;9.52;6.18;;;;;;;12.24;100.00;99895.59;5086411;28;20491;-72
2022/06/08 02:38:30;;;;;;;9.13;6.88;;;;;;;12.17;100.00;99879.34;5085564;28;20055;-72
2022/06/08 02:40:57;;;;;;;9.38;6.30;;;;;;;12.25;100.00;99886.75;5081379;28;20035;-72
2022/06/08 02:43:32;;;;;;;9.90;6.97;;;;;;;12.33;100.00;99896.78;5088997;28;20170;-73
2022/06/08 02:46:30;;;;;;;6.38;5.68;;;;;;;12.30;100.00;99890.75;5060646;28;20082;-73
2022/06/08 02:48:55;;;;;;;16.20;8.23;;;;;;;12.38;100.00;99898.16;5084960;28;20047;-73
2022/06/08 02:51:29;;;;;;;11.38;9.43;;;;;;;12.37;100.00;99885.94;5092502;28;20032;-72
2022/06/08 02:54:03;;;;;;;15.20;9.38;;;;;;;12.44;100.00;99891.63;5089911;28;20479;-73
2022/06/08 02:56:50;;;;;;;12.40;10.60;;;;;;;12.48;100.00;99893.97;5080945;28;20521;-74
2022/06/08 02:59:36;;;;;;;14.18;11.07;;;;;;;12.53;100.00;99894.53;5087890;28;20050;-73
2022/06/08 03:02:13;;;;;;;14.13;11.38;;;;;;;12.53;100.00;99884.00;5084908;28;20032;-72
2022/06/08 03:04:58;;;;;;;18.48;14.07;;;;;;;12.56;100.00;99885.56;5091098;28;20056;-72
2022/06/08 03:07:29;;;;;;;18.08;12.85;;;;;;;12.60;100.00;99887.06;5092438;28;20104;-71
2022/06/08 03:09:56;;;;;;;19.50;14.25;;;;;;;12.56;100.00;99873.25;5092881;28;20108;-71
2022/06/08 03:12:35;;;;;;;17.85;13.50;;;;;;;12.67;100.00;99889.16;5078621;28;20025;-71
2022/06/08 03:15:07;;;;;;;15.23;13.20;;;;;;;12.65;100.00;99877.03;5086214;28;20041;-71
2022/06/08 03:17:34;;;;;;;16.45;14.02;;;;;;;12.79;100.00;99879.59;5084833;28;20032;-71
2022/06/08 03:20:01;;;;;;;17.13;13.82;;;;;;;12.81;100.00;99880.34;5090216;28;20421;-72
2022/06/08 03:22:28;;;;;;;18.67;12.82;;;;;;;12.92;100.00;99883.09;5081918;28;20028;-71
2022/06/08 03:24:53;;;;;;;13.63;11.85;;;;;;;12.97;100.00;99875.72;5092111;28;20544;-71
2022/06/08 03:27:20;;;;;;;17.30;12.73;;;;;;;12.99;100.00;99876.47;5092142;28;20052;-72
2022/06/08 03:29:45;;;;;;;14.25;12.05;;;;;;;13.11;100.00;99883.53;5088832;28;20398;-72
2022/06/08 03:32:11;;;;;;;17.88;13.57;;;;;;;13.08;100.00;99856.53;5070838;28;20032;-72
2022/06/08 03:34:36;;;;;;;15.57;13.73;;;;;;;13.13;100.00;99870.25;5073781;28;20032;-72
2022/06/08 03:37:02;;;;;;;19.73;13.35;;;;;;;13.09;100.00;99853.81;5073670;28;20028;-72
2022/06/08 03:39:28;;;;;;;15.43;12.30;;;;;;;13.10;100.00;99855.50;5082550;28;20108;-71
2022/06/08 03:41:53;;;;;;;20.00;11.77;;;;;;;13.23;100.00;99866.88;5075460;28;20119;-72
2022/06/08 03:44:18;;;;;;;11.02;9.60;;;;;;;13.24;100.00;99859.81;5091451;28;20111;-72
2022/06/08 03:46:52;;;;;;;11.25;9.55;;;;;;;13.37;100.00;99876.47;5076764;28;20032;-72
2022/06/08 03:49:18;;;;;;;13.17;9.03;;;;;;;13.27;100.00;99860.44;5076660;28;20543;-71
2022/06/08 03:51:44;;;;;;;10.15;8.27;;;;;;;13.30;100.00;99873.44;5090298;28;20035;-72
2022/06/08 03:54:16;;;;;;;9.43;8.27;;;;;;;13.34;100.00;99881.13;5070848;28;20033;-72
2022/06/08 03:56:43;;;;;;;8.50;7.57;;;;;;;13.24;100.00;99858.03;5073735;28;20024;-71
2022/06/08 03:59:09;;;;;;;10.88;7.45;;;;;;;13.34;100.00;99868.78;5065198;28;20110;-71
2022/06/08 04:01:40;;;;;;;13.15;8.23;;;;;;;13.38;100.00;99874.69;5074319;28;20085;-71
2022/06/08 04:04:05;;;;;;;8.93;7.07;;;;;;;13.37;100.00;99868.56;5081811;28;20039;-71
2022/06/08 04:06:31;;;;;;;9.15;8.07;;;;;;;13.37;100.00;99857.16;5079303;28;20054;-71
2022/06/08 04:08:57;;;;;;;9.43;6.95;;;;;;;13.39;100.00;99871.94;5081917;28;20024;-71
2022/06/08 04:11:22;;;;;;;8.43;6.85;;;;;;;13.40;100.00;99872.78;5078301;28;20402;-70
2022/06/08 04:13:48;;;;;;;10.02;6.93;;;;;;;13.32;100.00;99860.09;5083762;28;20060;-72
2022/06/08 04:16:13;;;;;;;13.00;8.40;;;;;;;13.38;100.00;99848.31;5081458;28;20553;-72
2022/06/08 04:18:38;;;;;;;9.70;8.70;;;;;;;13.50;100.00;99860.63;5094936;28;20093;-72
2022/06/08 04:21:06;;;;;;;11.73;8.35;;;;;;;13.54;100.00;99864.75;5088998;28;20035;-73
2022/06/08 04:23:33;;;;;;;11.68;6.68;;;;;;;13.46;100.00;99853.88;5079631;28;20024;-73
2022/06/08 04:25:59;;;;;;;7.65;6.65;;;;;;;13.54;100.00;99870.00;5093870;28;20020;-74
2022/06/08 04:28:25;;;;;;;10.63;6.25;;;;;;;13.56;100.00;99858.38;5093762;28;20036;-73
2022/06/08 04:30:51;;;;;;;7.70;5.95;;;;;;;13.57;100.00;99848.69;5089272;28;20044;-73
2022/06/08 04:33:16;;;;;;;6.13;5.40;;;;;;;13.51;100.00;99841.19;5091566;28;20035;-73
2022/06/08 04:35:43;;;;;;;6.97;5.30;;;;;;;13.63;100.00;99827.09;5088924;28;20026;-73
2022/06/08 04:38:09;;;;;;;5.93;5.32;;;;;;;13.85;100.00;99853.69;5082678;28;20036;-73
2022/06/08 04:40:35;;;;;;;8.95;5.88;;;;;;;13.63;100.00;99837.66;5076317;28;20080;-73
2022/06/08 04:43:01;;;;;;;6.28;5.55;;;;;;;13.62;100.00;99843.94;5092803;28;20023;-73
2022/06/08 04:45:27;;;;;;;7.15;5.28;;;;;;;13.64;100.00;99847.28;5093524;28;20107;-74
2022/06/08 04:47:52;;;;;;;9.02;5.78;;;;;;;13.56;100.00;99834.63;5085292;28;20112;-72
2022/06/08 04:50:18;;;;;;;6.93;5.50;;;;;;;13.39;100.00;99805.09;5080229;28;20034;-72
2022/06/08 04:52:43;;;;;;;8.45;4.53;;;;;;;13.56;100.00;99831.13;5075527;28;20115;-72
2022/06/08 04:55:11;;;;;;;6.05;4.95;;;;;;;13.65;100.00;99836.59;5085367;28;20401;-73
2022/06/08 04:57:37;;;;;;;6.60;5.18;;;;;;;13.69;100.00;99835.44;5085615;28;20028;-74
2022/06/08 05:00:12;;;;;;;8.02;5.45;;;;;;;13.78;100.00;99836.59;5081746;28;20406;-74
2022/06/08 05:02:44;;;;;;;8.48;5.10;;;;;;;13.73;100.00;99822.84;5080663;28;20056;-74
2022/06/08 05:05:19;;;;;;;7.97;6.05;;;;;;;13.88;100.00;99837.59;5069331;28;20032;-74
2022/06/08 05:07:45;;;;;;;7.38;5.63;;;;;;;13.90;100.00;99834.84;5077042;28;20446;-73
2022/06/08 05:10:11;;;;;;;9.95;6.45;;;;;;;13.98;100.00;99838.63;5082505;28;20032;-74
2022/06/08 05:12:36;;;;;;;7.90;5.45;;;;;;;14.02;100.00;99832.16;5092930;28;20029;-73
2022/06/08 05:15:20;;;;;;;5.68;5.07;;;;;;;14.02;100.00;99818.94;5088319;28;20021;-72
2022/06/08 05:17:45;;;;;;;5.28;4.53;;;;;;;13.98;100.00;99803.44;5090895;28;20058;-74
2022/06/08 05:20:12;;;;;;;8.05;6.18;;;;;;;14.06;100.00;99819.56;5091435;28;20024;-74
2022/06/08 05:22:38;;;;;;;7.70;5.78;;;;;;;14.13;100.00;99811.06;5086323;28;20034;-74
2022/06/08 05:25:06;;;;;;;7.22;5.20;;;;;;;14.11;100.00;99806.84;5081465;28;20027;-74
2022/06/08 05:27:31;;;;;;;6.63;4.63;;;;;;;14.15;100.00;99809.16;5083506;28;20020;-74
2022/06/08 05:29:57;;;;;;;8.40;4.93;;;;;;;14.13;100.00;99792.56;5089589;28;20045;-74
2022/06/08 05:32:22;;;;;;;7.20;5.15;;;;;;;14.20;100.00;99801.72;5086948;28;20032;-75
2022/06/08 05:34:48;;;;;;;8.13;5.43;;;;;;;14.19;100.00;99796.56;5076592;28;20055;-75
2022/06/08 05:37:13;;;;;;;7.40;4.57;;;;;;;13.84;100.00;99730.50;5080560;28;20027;-75
2022/06/08 05:39:38;;;;;;;6.57;5.40;;;;;;;14.18;100.00;99785.16;5085499;28;20491;-75
2022/06/08 05:42:04;;;;;;;6.53;5.28;;;;;;;14.28;100.00;99770.28;5083298;28;20028;-76
2022/06/08 05:44:32;;;;;;;7.53;5.15;;;;;;;14.38;100.00;99786.31;5073659;28;20024;-75
2022/06/08 05:46:58;;;;;;;5.47;4.93;;;;;;;14.33;100.00;99778.72;5084620;28;20054;-75
2022/06/08 05:49:23;;;;;;;10.45;4.95;;;;;;;14.25;100.00;99762.59;5085750;28;20036;-73
2022/06/08 05:51:48;;;;;;;5.20;4.18;;;;;;;14.35;100.00;99767.22;5083253;28;20047;-74
2022/06/08 05:54:14;;;;;;;11.77;4.95;;;;;;;14.44;100.00;99775.28;5086474;27;20905;-74
2022/06/08 05:56:40;;;;;;;6.90;4.95;;;;;;;14.52;100.00;99785.28;5050134;28;20035;-74
2022/06/08 05:59:06;;;;;;;7.60;5.30;;;;;;;14.51;100.00;99763.28;5053065;28;20061;-74
2022/06/08 06:01:33;;;;;;;6.90;5.18;;;;;;;14.63;100.00;99772.09;5077443;28;20516;-74
2022/06/08 06:04:02;;;;;;;5.88;4.78;;;;;;;14.55;100.00;99748.88;5085178;28;20020;-76
2022/06/08 06:06:29;;;;;;;7.13;5.00;;;;;;;14.22;100.00;99688.84;5070671;28;20055;-74
2022/06/08 06:08:54;;;;;;;8.98;4.93;;;;;;;14.71;100.00;99759.94;5074092;28;20028;-74
2022/06/08 06:11:21;;;;;;;5.28;4.03;;;;;;;14.76;100.00;99767.53;5087767;28;20017;-74
2022/06/08 06:13:46;;;;;;;5.35;4.10;;;;;;;14.84;100.00;99770.41;5081786;28;20069;-75
2022/06/08 06:16:11;;;;;;;6.93;5.20;;;;;;;14.82;100.00;99767.03;5079971;28;20127;-73
2022/06/08 06:18:37;;;;;;;7.90;4.30;;;;;;;14.84;100.00;99760.66;5047159;28;20419;-74
2022/06/08 06:21:02;;;;;;;13.38;3.75;;;;;;;14.93;100.00;99758.28;5069794;28;20926;-73
2022/06/08 06:23:28;;;;;;;5.43;3.83;;;;;;;14.98;100.00;99758.75;5050473;28;20044;-74
2022/06/08 06:25:55;;;;;;;8.52;3.90;;;;;;;15.05;100.00;99757.31;5042036;28;20841;-74
2022/06/08 06:28:21;;;;;;;8.13;3.35;;;;;;;15.01;100.00;99739.97;5062749;28;20030;-73
2022/06/08 06:30:46;;;;;;;7.10;3.50;;;;;;;15.09;100.00;99764.88;5064790;28;20861;-75
2022/06/08 06:33:14;;;;;;;5.20;3.22;;;;;;;15.15;100.00;99753.81;5062706;28;20032;-74
2022/06/08 06:35:41;;;;;;;5.70;2.85;;;;;;;15.15;100.00;99748.53;5062549;28;20024;-74
2022/06/08 06:38:08;;;;;;;6.78;2.75;;;;;;;15.21;100.00;99745.38;5056640;28;20386;-74
2022/06/08 06:40:34;;;;;;;11.98;3.83;;;;;;;15.30;100.00;99755.25;5075902;28;20028;-74
2022/06/08 06:43:00;;;;;;;4.13;2.28;;;;;;;15.40;100.00;99757.16;5072264;28;20489;-74
2022/06/08 06:45:26;;;;;;;8.82;3.10;;;;;;;15.41;100.00;99749.06;5087147;28;20127;-74
2022/06/08 06:47:51;;;;;;;5.72;3.00;;;;;;;15.42;100.00;99744.63;5091862;28;20080;-74
2022/06/08 06:50:17;;;;;;;4.63;2.00;;;;;;;15.44;100.00;99743.56;5079816;28;20016;-77
2022/06/08 06:52:44;;;;;;;4.82;2.30;;;;;;;15.47;100.00;99753.06;5080118;28;20028;-75
2022/06/08 06:55:22;;;;;;;4.60;2.75;;;;;;;15.48;100.00;99738.84;5091581;28;20138;-74
2022/06/08 06:57:48;;;;;;;3.20;2.03;;;;;;;15.39;100.00;99702.50;5078329;28;20099;-74
2022/06/08 07:00:16;;;;;;;7.10;2.92;;;;;;;15.79;100.00;99752.16;5080528;28;20497;-74
2022/06/08 07:02:42;;;;;;;3.47;1.88;;;;;;;15.81;100.00;99762.63;5087065;28;20123;-74
2022/06/08 07:05:11;;;;;;;4.43;2.33;;;;;;;15.90;100.00;99767.16;5085275;28;20073;-74
2022/06/08 07:07:37;;;;;;;4.50;2.35;;;;;;;15.78;100.00;99733.75;5088741;28;20109;-75
2022/06/08 07:10:02;;;;;;;3.97;2.03;;;;;;;16.05;100.00;99770.38;5090486;28;20044;-76
2022/06/08 07:12:27;;;;;;;5.25;2.05;;;;;;;15.94;100.00;99742.09;5086268;28;20036;-75
2022/06/08 07:14:53;;;;;;;8.77;2.55;;;;;;;16.05;100.00;99751.81;5059817;28;20649;-74
2022/06/08 07:17:18;;;;;;;5.40;1.85;;;;;;;16.08;100.00;99744.44;5088825;28;20081;-75
2022/06/08 07:19:44;;;;;;;5.10;2.10;;;;;;;16.24;100.00;99755.44;5087992;28;20024;-77
2022/06/08 07:22:11;;;;;;;4.93;2.15;;;;;;;16.28;100.00;99754.22;5077405;28;21047;-77
2022/06/08 07:24:36;;;;;;;5.75;2.30;;;;;;;16.31;100.00;99735.41;5069065;28;20648;-79
2022/06/08 07:27:03;;;;;;;3.53;1.98;;;;;;;16.55;100.00;99759.03;5083240;28;20023;-78
2022/06/08 07:29:29;;;;;;;5.40;2.40;;;;;;;16.38;100.00;99713.66;5088459;28;20075;-75
2022/06/08 07:31:55;;;;;;;4.32;1.88;;;;;;;16.71;100.00;99753.25;5084911;28;20691;-78
2022/06/08 07:34:21;;;;;;;5.03;2.25;;;;;;;16.79;100.00;99735.72;5084085;28;20050;-77
2022/06/08 07:36:46;;;;;;;7.95;2.53;;;;;;;16.89;100.00;99746.38;5070994;28;20479;-76
2022/06/08 07:39:15;;;;;;;8.43;2.40;;;;;;;16.99;100.00;99736.63;5068486;28;20031;-77
2022/06/08 07:41:42;;;;;;;5.75;1.92;;;;;;;17.03;100.00;99722.13;5075985;28;20085;-77
2022/06/08 07:44:07;;;;;;;10.80;2.53;;;;;;;17.15;100.00;99750.25;5079226;28;20139;-76
2022/06/08 07:46:33;;;;;;;3.67;2.13;;;;;;;17.10;100.00;99744.47;5081083;28;20497;-76
2022/06/08 07:51:42;;;;;;;7.43;2.55;;;;;;;17.12;100.00;99721.31;5090777;28;20120;-77
2022/06/08 07:54:08;;;;;;;6.80;2.92;;;;;;;17.08;100.00;99725.22;5089445;28;20115;-78
2022/06/08 07:56:33;;;;;;;7.47;2.42;;;;;;;17.26;100.00;99744.84;5092179;28;20032;-76
2022/06/08 07:58:59;;;;;;;9.98;3.58;;;;;;;17.08;100.00;99714.59;5090540;28;20043;-78
2022/06/08 08:01:24;;;;;;;8.02;3.20;;;;;;;17.22;100.00;99730.16;5090563;28;20102;-76
2022/06/08 08:03:49;;;;;;;7.13;2.78;;;;;;;17.33;100.00;99739.81;5090995;28;20119;-78
2022/06/08 08:06:15;;;;;;;19.65;3.78;;;;;;;17.25;100.00;99721.91;5075534;28;20032;-78
2022/06/08 08:08:40;;;;;;;5.82;2.58;;;;;;;17.33;100.00;99724.75;5075433;28;20077;-77
2022/06/08 08:11:06;;;;;;;6.35;2.85;;;;;;;17.32;100.00;99720.38;5094800;28;20382;-78
2022/06/08 08:13:32;;;;;;;11.40;2.97;;;;;;;17.54;100.00;99747.72;5071683;28;20057;-77
2022/06/08 08:15:58;;;;;;;6.72;3.38;;;;;;;17.64;100.00;99749.41;5070883;28;20070;-76
2022/06/08 08:18:23;;;;;;;10.38;3.47;;;;;;;17.61;100.00;99743.53;5078080;28;21058;-76
2022/06/08 08:20:49;;;;;;;9.43;3.28;;;;;;;17.55;100.00;99736.09;5072794;28;20028;-76
2022/06/08 08:23:15;;;;;;;15.43;3.80;;;;;;;17.51;100.00;99721.38;5095384;28;20032;-77
2022/06/08 08:25:41;;;;;;;8.52;3.45;;;;;;;17.62;100.00;99738.09;5082309;28;20103;-75
2022/06/08 08:28:07;;;;;;;15.90;3.20;;;;;;;17.50;100.00;99709.09;5085060;28;20024;-77
2022/06/08 08:30:33;;;;;;;10.10;3.03;;;;;;;17.66;100.00;99720.91;5080864;28;20089;-76
2022/06/08 08:32:59;;;;;;;5.65;2.75;;;;;;;17.41;100.00;99678.88;5093959;28;20478;-77
2022/06/08 08:35:24;;;;;;;10.27;2.97;;;;;;;17.75;100.00;99719.22;5088443;28;20036;-77
2022/06/08 08:37:51;;;;;;;10.50;3.47;;;;;;;17.85;100.00;99720.06;5084351;28;20494;-78
2022/06/08 08:40:44;;;;;;;13.30;3.08;;;;;;;17.99;100.00;99727.63;5085199;28;20454;-77
2022/06/08 08:43:15;;;;;;;7.40;3.25;;;;;;;17.94;100.00;99713.94;5081774;28;20106;-77
2022/06/08 08:45:45;;;;;;;5.85;2.97;;;;;;;17.96;100.00;99701.31;5082797;28;20111;-75
2022/06/08 08:48:20;;;;;;;8.45;3.97;;;;;;;18.01;100.00;99720.38;5072654;28;20076;-76
2022/06/08 08:50:55;;;;;;;13.85;3.83;;;;;;;18.04;100.00;99720.06;5071808;28;20115;-77
2022/06/08 08:53:36;;;;;;;7.22;3.28;;;;;;;18.08;100.00;99721.44;5077197;28;20035;-76
2022/06/08 08:56:07;;;;;;;10.15;3.47;;;;;;;18.07;100.00;99730.44;5091051;28;20085;-77
2022/06/08 08:58:37;;;;;;;13.20;4.13;;;;;;;17.76;100.00;99683.69;5092839;28;20028;-76
2022/06/08 09:01:11;;;;;;;11.45;3.70;;;;;;;17.78;100.00;99703.84;5079341;28;20024;-75
2022/06/08 09:03:43;;;;;;;7.30;3.28;;;;;;;17.83;100.00;99724.69;5075005;28;20040;-75
2022/06/08 09:06:15;;;;;;;8.57;3.35;;;;;;;17.76;100.00;99729.72;5082719;28;20853;-75
2022/06/08 09:08:43;;;;;;;8.55;3.13;;;;;;;17.65;100.00;99735.16;5088396;28;20356;-76
2022/06/08 09:11:26;;;;;;;10.13;3.00;;;;;;;17.43;100.00;99735.38;5085370;28;20051;-74
2022/06/08 09:13:59;;;;;;;6.47;3.33;;;;;;;17.29;100.00;99739.25;5068904;28;20105;-76
2022/06/08 09:16:27;;;;;;;12.68;3.55;;;;;;;17.11;100.00;99748.81;5076527;28;20513;-76
2022/06/08 09:18:52;;;;;;;8.88;3.70;;;;;;;16.89;100.00;99735.75;5071451;28;20058;-75
2022/06/08 09:21:25;;;;;;;9.25;3.67;;;;;;;16.74;100.00;99745.88;5089408;28;20020;-76
2022/06/08 09:23:53;;;;;;;8.60;3.55;;;;;;;16.56;100.00;99750.09;5089069;28;20036;-75
2022/06/08 09:26:24;;;;;;;7.47;3.20;;;;;;;16.30;100.00;99746.13;5078265;28;20102;-78
2022/06/08 09:28:58;;;;;;;7.78;3.53;;;;;;;15.99;100.00;99731.09;5085179;28;20123;-79
2022/06/08 09:31:26;;;;;;;13.45;3.63;;;;;;;15.83;100.00;99739.50;5085787;28;20383;-79
2022/06/08 09:34:06;;;;;;;10.25;3.63;;;;;;;15.64;100.00;99744.63;5078555;28;20139;-78
2022/06/08 09:36:32;;;;;;;11.35;3.85;;;;;;;15.37;100.00;99721.19;5097377;28;20475;-77
2022/06/08 09:38:58;;;;;;;12.57;3.83;;;;;;;15.27;100.00;99736.13;5083875;28;20054;-76
2022/06/08 09:41:36;;;;;;;10.88;4.95;;;;;;;15.08;100.00;99736.72;5073991;28;20039;-75
2022/06/08 09:44:01;;;;;;;14.52;4.38;;;;;;;15.04;100.00;99743.22;5078267;28;20027;-72
2022/06/08 09:53:06;;;;;;;8.98;4.10;;;;;;;14.85;100.00;99740.34;5075680;28;20042;-76
2022/06/08 09:55:53;;;;;;;8.43;4.80;;;;;;;14.95;100.00;99751.91;5067486;28;20039;-75
2022/06/08 09:58:43;;;;;;;7.75;5.03;;;;;;;14.94;100.00;99758.13;5088704;28;20044;-75
2022/06/08 10:01:19;;;;;;;10.60;5.28;;;;;;;14.88;100.00;99750.69;5092437;28;20024;-74
2022/06/08 10:04:06;;;;;;;16.65;5.55;;;;;;;14.84;100.00;99754.53;5091391;28;20040;-73
2022/06/08 10:06:46;;;;;;;13.50;5.35;;;;;;;14.77;100.00;99748.03;5082644;28;20428;-72
2022/06/08 10:09:29;;;;;;;9.00;5.18;;;;;;;14.77;100.00;99743.59;5086378;28;20043;-73
2022/06/08 10:12:25;;;;;;;13.45;6.15;;;;;;;14.91;100.00;99758.38;5076379;28;20027;-72
2022/06/08 10:14:56;;;;;;;13.07;5.35;;;;;;;14.99;100.00;99742.75;5085341;28;20031;-72
2022/06/08 10:17:26;;;;;;;12.77;6.13;;;;;;;14.70;100.00;99701.91;5071567;28;20662;-71
2022/06/08 10:20:17;;;;;;;16.77;5.90;;;;;;;14.95;100.00;99751.06;5069490;28;20054;-73
2022/06/08 10:22:47;;;;;;;8.48;4.95;;;;;;;14.92;100.00;99752.13;5072870;28;20072;-71
2022/06/08 10:25:17;;;;;;;14.10;6.43;;;;;;;14.86;100.00;99746.50;5076514;28;20036;-72
2022/06/08 10:27:48;;;;;;;16.63;6.25;;;;;;;14.87;100.00;99756.13;5073248;28;20086;-72
2022/06/08 10:30:31;;;;;;;11.93;5.43;;;;;;;14.83;100.00;99747.56;5073285;28;20043;-71
2022/06/08 10:33:01;;;;;;;11.02;6.10;;;;;;;14.87;100.00;99749.00;5071786;28;20025;-71
2022/06/08 10:35:31;;;;;;;9.93;5.53;;;;;;;14.89;100.00;99746.25;5087855;28;20020;-71
2022/06/08 10:37:59;;;;;;;15.95;7.45;;;;;;;14.83;100.00;99727.25;5084422;28;20084;-71
2022/06/08 10:40:28;;;;;;;13.35;6.95;;;;;;;15.00;100.00;99741.81;5081472;28;20035;-71
2022/06/08 10:42:54;;;;;;;9.23;5.32;;;;;;;14.95;100.00;99735.19;5083356;28;20019;-74
2022/06/08 10:45:23;;;;;;;17.83;5.47;;;;;;;14.94;100.00;99742.25;5078575;28;20062;-72
2022/06/08 10:47:57;;;;;;;11.10;5.25;;;;;;;14.81;100.00;99738.91;5079452;28;20036;-72
2022/06/08 10:50:28;;;;;;;12.65;4.65;;;;;;;14.75;100.00;99745.53;5085429;28;20032;-72
2022/06/08 10:54:52;;;;;;;9.57;5.28;;;;;;;14.70;100.00;99725.69;5077708;28;20123;-73
2022/06/08 10:55:42;;;;;;;7.72;4.57;;;;;;;14.55;100.00;99711.84;5090461;28;20113;-73
2022/06/08 10:58:12;;;;;;;9.02;4.20;;;;;;;14.51;100.00;99715.69;5088237;28;20028;-72
2022/06/08 11:00:53;;;;;;;13.10;6.03;;;;;;;14.56;100.00;99729.41;5083141;28;20569;-71
2022/06/08 11:03:23;;;;;;;11.07;5.85;;;;;;;14.52;100.00;99705.97;5087352;28;20031;-72
2022/06/08 11:05:48;;;;;;;8.63;5.15;;;;;;;14.57;100.00;99709.06;5090235;28;20024;-71
2022/06/08 11:08:23;;;;;;;10.27;5.28;;;;;;;14.66;100.00;99708.38;5087126;28;20094;-71
2022/06/08 11:10:57;;;;;;;8.23;4.50;;;;;;;14.77;100.00;99716.28;5082645;28;20106;-70
2022/06/08 11:13:23;;;;;;;6.65;4.40;;;;;;;14.74;100.00;99705.97;5086340;28;20112;-71
2022/06/08 11:16:14;;;;;;;11.10;4.47;;;;;;;14.75;100.00;99707.66;5087315;28;20056;-71
2022/06/08 11:18:48;;;;;;;16.83;5.63;;;;;;;14.75;100.00;99691.78;5087981;28;20080;-70
2022/06/08 11:21:13;;;;;;;;;;;;;;;14.85;100.00;99700.69;5082768;28;20067;-70
2022/06/08 11:23:44;;;;;;;10.20;4.67;;;;;;;14.90;100.00;99698.53;5080278;28;19974;-70
2022/06/08 11:26:25;;;;;;;11.57;5.03;;;;;;;14.97;100.00;99702.34;5080722;28;20285;-71
2022/06/08 11:29:16;;;;;;;6.57;4.95;;;;;;;14.97;100.00;99696.22;5087934;28;20028;-70
2022/06/08 11:31:42;;;;;;;8.73;4.90;;;;;;;14.99;100.00;99691.66;5079877;28;20058;-71
2022/06/08 11:34:19;;;;;;;7.90;5.10;;;;;;;15.07;100.00;99690.06;5092525;28;20563;-71
2022/06/08 11:36:50;;;;;;;8.77;4.70;;;;;;;15.17;100.00;99693.69;5088202;28;20382;-71
2022/06/08 11:39:15;;;;;;;10.30;5.25;;;;;;;15.23;100.00;99687.03;5088711;28;20030;-72
2022/06/08 11:41:42;;;;;;;8.70;5.43;;;;;;;15.22;100.00;99675.59;5080398;28;20107;-71
2022/06/08 11:44:18;;;;;;;11.13;5.43;;;;;;;15.12;100.00;99657.94;5093826;28;20069;-71
2022/06/08 11:46:53;;;;;;;8.43;4.78;;;;;;;15.08;100.00;99661.78;5093448;28;20020;-70